Terminal Aerodrome Forecast
Issued by NWS

Home | Current Version | Previous Version | Text Only | Print | Product List | Glossary On
Versions: 1 2 3 4 5 6 7 8 9 10 11 12 13 14 15
735
FTUS46 KSEW 201121
TAFHQM
TAF
KHQM 201121Z 2012/2112 06006KT P6SM SCT120 BKN150
     FM201800 15008KT P6SM SCT100 OVC150
     FM202200 18010KT P6SM BKN080 OVC120
     FM210300 17014G23KT P6SM -RA BKN040 OVC070
     FM210700 20018G28KT 4SM -RA BR BKN018 OVC030=

USA.gov is the U.S. government's official web portal to all federal, state and local government web resources and services.